createdAt,value
2023-03-20T00:01:24.807Z,8.40
2023-03-20T00:03:51.506Z,9.18
2023-03-20T00:06:20.722Z,9.40
2023-03-20T00:08:50.103Z,9.77
2023-03-20T00:11:32.181Z,9.32
2023-03-20T00:14:13.520Z,9.25
2023-03-20T00:16:45.731Z,9.77
2023-03-20T00:19:26.172Z,10.18
2023-03-20T00:21:54.545Z,10.18
2023-03-20T00:24:22.050Z,10.85
2023-03-20T00:26:50.052Z,10.38
2023-03-20T00:29:28.597Z,8.95
2023-03-20T00:31:55.698Z,9.00
2023-03-20T00:34:25.431Z,9.07
2023-03-20T00:36:53.770Z,7.95
2023-03-20T00:39:20.613Z,7.88
2023-03-20T00:41:57.736Z,7.28
2023-03-20T00:44:30.340Z,6.30
2023-03-20T00:46:59.823Z,7.03
2023-03-20T00:49:29.082Z,6.95
2023-03-20T00:51:56.090Z,6.60
2023-03-20T00:54:22.640Z,7.75
2023-03-20T00:56:56.480Z,6.95
2023-03-20T00:59:26.045Z,6.60
2023-03-20T01:01:52.842Z,6.75
2023-03-20T01:04:20.802Z,6.57
2023-03-20T01:06:47.560Z,7.15
2023-03-20T01:09:14.130Z,6.70
2023-03-20T01:11:41.128Z,7.25
2023-03-20T01:14:14.319Z,6.25
2023-03-20T01:16:41.273Z,6.97
2023-03-20T01:19:10.782Z,7.05
2023-03-20T01:21:37.363Z,8.23
2023-03-20T01:24:04.067Z,7.70
2023-03-20T01:26:36.060Z,5.50
2023-03-20T01:29:04.151Z,6.38
2023-03-20T01:31:30.805Z,6.03
2023-03-20T01:33:57.289Z,6.20
2023-03-20T01:36:24.210Z,4.97
2023-03-20T01:38:55.811Z,5.78
2023-03-20T01:41:24.854Z,6.15
2023-03-20T01:43:51.914Z,5.95
2023-03-20T01:46:24.360Z,6.38
2023-03-20T01:48:50.888Z,5.88
2023-03-20T01:51:22.167Z,5.35
2023-03-20T01:53:57.326Z,6.13
2023-03-20T01:56:24.461Z,5.60
2023-03-20T01:59:24.832Z,5.25
2023-03-20T02:01:51.434Z,6.05
2023-03-20T02:04:20.150Z,5.50
2023-03-20T02:06:46.848Z,6.13
2023-03-20T02:09:13.405Z,6.25
2023-03-20T02:11:41.836Z,6.63
2023-03-20T02:14:09.407Z,5.85
2023-03-20T02:16:35.948Z,5.72
2023-03-20T02:19:02.758Z,5.53
2023-03-20T02:22:03.200Z,5.95
2023-03-20T02:24:51.025Z,5.45
2023-03-20T02:30:24.424Z,5.85
2023-03-20T02:33:21.744Z,5.78
2023-03-20T02:36:14.599Z,5.97
2023-03-20T02:38:48.156Z,5.53
2023-03-20T02:41:39.256Z,6.50
2023-03-20T02:44:12.517Z,6.28
2023-03-20T02:46:43.938Z,6.30
2023-03-20T02:49:38.882Z,6.57
2023-03-20T02:52:11.060Z,7.03
2023-03-20T02:55:08.431Z,7.05
2023-03-20T02:58:12.323Z,6.18
2023-03-20T03:00:45.239Z,5.97
2023-03-20T03:03:20.756Z,5.93
2023-03-20T03:05:52.748Z,6.97
2023-03-20T03:08:22.863Z,6.57
2023-03-20T03:13:22.888Z,6.40
2023-03-20T03:15:53.935Z,5.97
2023-03-20T03:18:24.966Z,7.25
2023-03-20T03:20:59.958Z,7.00
2023-03-20T03:23:34.118Z,6.05
2023-03-20T03:26:04.080Z,6.20
2023-03-20T03:28:50.725Z,6.85
2023-03-20T03:31:19.442Z,6.90
2023-03-20T03:33:49.743Z,6.90
2023-03-20T03:36:50.066Z,6.95
2023-03-20T03:39:40.804Z,7.65
2023-03-20T03:42:39.616Z,7.03
2023-03-20T03:45:22.504Z,7.68
2023-03-20T03:47:59.915Z,8.23
2023-03-20T03:50:32.008Z,7.80
2023-03-20T03:53:03.312Z,7.63
2023-03-20T03:55:36.573Z,7.35
2023-03-20T03:58:18.709Z,8.00
2023-03-20T04:00:48.112Z,7.15
2023-03-20T04:03:15.754Z,6.97
2023-03-20T04:05:45.866Z,7.78
2023-03-20T04:10:40.629Z,6.55
2023-03-20T04:13:07.148Z,7.30
2023-03-20T04:15:33.984Z,7.38
2023-03-20T04:18:00.680Z,7.10
2023-03-20T04:20:27.216Z,6.32
2023-03-20T04:22:53.744Z,6.93
2023-03-20T04:25:23.094Z,6.72
2023-03-20T04:27:49.651Z,5.82
2023-03-20T04:30:16.738Z,7.18
2023-03-20T04:32:43.243Z,6.25
2023-03-20T04:35:10.086Z,6.57
2023-03-20T04:37:36.623Z,6.90
2023-03-20T04:40:03.890Z,5.65
2023-03-20T04:42:30.476Z,5.30
2023-03-20T04:44:57.161Z,5.93
2023-03-20T04:47:23.694Z,6.70
2023-03-20T04:49:51.660Z,5.18
2023-03-20T04:52:18.187Z,5.90
2023-03-20T04:54:44.660Z,5.53
2023-03-20T04:57:13.194Z,6.30
2023-03-20T04:59:39.652Z,5.68
2023-03-20T05:02:06.123Z,5.88
2023-03-20T05:04:32.730Z,6.63
2023-03-20T05:06:59.274Z,6.45
2023-03-20T05:09:25.795Z,6.43
2023-03-20T05:11:52.264Z,6.32
2023-03-20T05:14:18.764Z,6.07
2023-03-20T05:16:45.336Z,5.97
2023-03-20T05:19:11.871Z,6.15
2023-03-20T05:21:38.389Z,6.30
2023-03-20T05:24:05.304Z,6.20
2023-03-20T05:26:31.775Z,6.40
2023-03-20T05:28:58.312Z,5.57
2023-03-20T05:31:24.873Z,6.05
2023-03-20T05:33:51.403Z,5.75
2023-03-20T05:36:18.070Z,5.95
2023-03-20T05:38:44.644Z,5.93
2023-03-20T05:41:11.175Z,5.60
2023-03-20T05:43:37.708Z,6.38
2023-03-20T05:46:04.372Z,5.75
2023-03-20T05:48:30.948Z,6.03
2023-03-20T05:50:57.476Z,5.03
2023-03-20T05:53:23.962Z,6.28
2023-03-20T05:55:50.506Z,6.30
2023-03-20T05:58:17.111Z,5.28
2023-03-20T06:00:43.649Z,4.22
2023-03-20T06:03:10.249Z,5.40
2023-03-20T06:05:37.146Z,5.25
2023-03-20T06:08:04.595Z,5.45
2023-03-20T06:10:31.335Z,4.25
2023-03-20T06:12:58.814Z,5.55
2023-03-20T06:15:25.352Z,4.15
2023-03-20T06:17:51.865Z,5.43
2023-03-20T06:20:19.102Z,4.53
2023-03-20T06:22:46.190Z,4.57
2023-03-20T06:25:12.928Z,4.30
2023-03-20T06:27:39.547Z,4.20
2023-03-20T06:30:06.657Z,4.30
2023-03-20T06:32:33.290Z,4.38
2023-03-20T06:34:59.842Z,4.72
2023-03-20T06:37:26.333Z,4.47
2023-03-20T06:39:52.885Z,4.47
2023-03-20T06:42:19.416Z,3.70
2023-03-20T06:44:45.885Z,3.83
2023-03-20T06:47:12.379Z,4.07
2023-03-20T06:49:38.844Z,3.95
2023-03-20T06:52:05.839Z,4.60
2023-03-20T06:54:32.355Z,3.97
2023-03-20T06:56:58.830Z,4.15
2023-03-20T06:59:27.522Z,3.70
2023-03-20T07:01:54.132Z,3.67
2023-03-20T07:04:20.974Z,3.47
2023-03-20T07:06:47.573Z,4.07
2023-03-20T07:09:14.174Z,4.32
2023-03-20T07:11:40.667Z,4.82
2023-03-20T07:14:07.170Z,4.60
2023-03-20T07:16:33.706Z,4.10
2023-03-20T07:19:00.296Z,4.03
2023-03-20T07:21:26.858Z,4.13
2023-03-20T07:23:53.727Z,4.45
2023-03-20T07:26:20.219Z,4.10
2023-03-20T07:28:46.680Z,4.13
2023-03-20T07:31:20.982Z,4.60
2023-03-20T07:33:47.792Z,4.65
2023-03-20T07:36:14.631Z,4.88
2023-03-20T07:38:41.102Z,4.60
2023-03-20T07:41:08.267Z,4.10
2023-03-20T07:43:34.790Z,4.43
2023-03-20T07:46:06.651Z,5.13
2023-03-20T07:48:33.527Z,4.43
2023-03-20T07:51:00.041Z,4.03
2023-03-20T07:53:26.546Z,4.57
2023-03-20T07:55:53.050Z,4.30
2023-03-20T07:58:19.798Z,4.78
2023-03-20T08:00:46.264Z,4.18
2023-03-20T08:03:12.953Z,5.18
2023-03-20T08:05:39.733Z,4.13
2023-03-20T08:08:06.517Z,4.38
2023-03-20T08:10:33.261Z,3.45
2023-03-20T08:12:59.775Z,4.53
2023-03-20T08:15:26.431Z,4.50
2023-03-20T08:17:52.962Z,4.70
2023-03-20T08:20:19.493Z,4.10
2023-03-20T08:22:45.972Z,3.42
2023-03-20T08:25:12.642Z,4.15
2023-03-20T08:27:39.161Z,4.05
2023-03-20T08:30:06.352Z,4.45
2023-03-20T08:32:32.948Z,4.45
2023-03-20T08:34:59.523Z,3.75
2023-03-20T08:37:26.112Z,3.22
2023-03-20T08:39:52.615Z,2.80
2023-03-20T08:42:19.411Z,3.35
2023-03-20T08:44:46.351Z,3.50
2023-03-20T08:47:12.834Z,3.50
2023-03-20T08:49:39.515Z,3.45
2023-03-20T08:52:06.050Z,2.67
2023-03-20T08:54:32.614Z,3.22
2023-03-20T08:56:59.214Z,2.70
2023-03-20T08:59:25.729Z,2.60
2023-03-20T09:01:52.294Z,3.58
2023-03-20T09:04:19.071Z,3.05
2023-03-20T09:06:45.599Z,2.90
2023-03-20T09:09:12.222Z,2.55
2023-03-20T09:11:38.718Z,3.53
2023-03-20T09:14:05.296Z,3.60
2023-03-20T09:16:32.059Z,2.78
2023-03-20T09:18:58.672Z,3.55
2023-03-20T09:21:25.264Z,2.55
2023-03-20T09:23:51.806Z,3.15
2023-03-20T09:26:18.445Z,3.08
2023-03-20T09:28:45.015Z,2.15
2023-03-20T09:31:11.623Z,2.97
2023-03-20T09:33:38.129Z,3.42
2023-03-20T09:36:04.994Z,3.15
2023-03-20T09:38:31.495Z,3.40
2023-03-20T09:41:00.998Z,1.95
2023-03-20T09:43:36.271Z,2.67
2023-03-20T09:46:05.920Z,2.85
2023-03-20T09:48:49.504Z,2.70
2023-03-20T09:51:21.846Z,2.65
2023-03-20T09:53:59.880Z,2.53
2023-03-20T09:56:29.737Z,2.38
2023-03-20T09:59:05.675Z,2.58
2023-03-20T10:01:47.672Z,2.45
2023-03-20T10:04:14.237Z,1.98
2023-03-20T10:06:40.860Z,2.30
2023-03-20T10:09:16.418Z,1.88
2023-03-20T10:12:05.550Z,2.47
2023-03-20T10:15:06.781Z,2.17
2023-03-20T10:17:53.219Z,2.40
2023-03-20T10:20:36.106Z,1.95
2023-03-20T10:23:21.731Z,3.08
2023-03-20T10:25:59.268Z,1.80
2023-03-20T10:28:31.630Z,1.80
2023-03-20T10:31:33.380Z,2.35
2023-03-20T10:34:23.336Z,2.08
2023-03-20T10:36:55.714Z,1.90
2023-03-20T10:39:38.240Z,2.10
2023-03-20T10:42:26.483Z,2.13
2023-03-20T10:45:05.897Z,2.17
2023-03-20T10:47:38.936Z,2.17
2023-03-20T10:50:16.766Z,2.05
2023-03-20T10:52:45.720Z,1.75
2023-03-20T10:55:26.591Z,1.88
2023-03-20T10:58:17.153Z,1.60
2023-03-20T11:00:43.688Z,1.67
2023-03-20T11:03:20.840Z,1.70
2023-03-20T11:06:08.294Z,1.60
2023-03-20T11:08:42.073Z,2.00
2023-03-20T11:11:09.926Z,1.48
2023-03-20T11:13:39.936Z,1.48
2023-03-20T11:18:41.088Z,1.75
2023-03-20T11:21:14.115Z,1.50
2023-03-20T11:23:40.776Z,1.90
2023-03-20T11:26:38.345Z,1.48
2023-03-20T11:29:32.120Z,1.67
2023-03-20T11:32:28.090Z,1.83
2023-03-20T11:34:55.523Z,1.55
2023-03-20T11:37:27.732Z,1.83
2023-03-20T11:40:14.925Z,1.60
2023-03-20T11:43:04.489Z,1.55
2023-03-20T11:45:40.276Z,1.60
2023-03-20T11:48:20.029Z,1.40
2023-03-20T11:50:56.313Z,1.40
2023-03-20T11:53:27.572Z,1.27
2023-03-20T11:56:06.199Z,1.45
2023-03-20T11:58:34.741Z,1.45
2023-03-20T12:01:02.846Z,1.30
2023-03-20T12:03:51.818Z,1.10
2023-03-20T12:06:37.151Z,1.67
2023-03-20T12:09:12.485Z,1.38
2023-03-20T12:11:48.139Z,1.17
2023-03-20T12:14:27.329Z,1.33
2023-03-20T12:17:05.641Z,1.20
2023-03-20T12:19:32.950Z,1.58
2023-03-20T12:22:22.761Z,1.65
2023-03-20T12:25:16.260Z,1.92
2023-03-20T12:27:56.503Z,2.10
2023-03-20T12:30:47.312Z,1.63
2023-03-20T12:33:26.320Z,1.70
2023-03-20T12:35:54.246Z,1.90
2023-03-20T12:38:27.553Z,1.60
2023-03-20T12:41:25.209Z,1.98
2023-03-20T12:44:10.339Z,1.77
2023-03-20T12:47:17.072Z,2.13
2023-03-20T12:50:04.325Z,2.35
2023-03-20T12:53:09.962Z,2.00
2023-03-20T12:55:52.722Z,2.50
2023-03-20T12:58:25.330Z,1.88
2023-03-20T13:01:02.360Z,1.38
2023-03-20T13:04:02.236Z,1.83
2023-03-20T13:06:50.460Z,2.03
2023-03-20T13:09:43.003Z,2.05
2023-03-20T13:12:17.082Z,2.33
2023-03-20T13:15:03.399Z,1.77
2023-03-20T13:17:42.073Z,1.88
2023-03-20T13:20:26.321Z,1.83
2023-03-20T13:23:10.352Z,2.10
2023-03-20T13:25:55.450Z,2.13
2023-03-20T13:28:48.944Z,1.42
2023-03-20T13:34:15.386Z,2.28
2023-03-20T13:37:24.703Z,1.98
2023-03-20T13:40:00.541Z,1.77
2023-03-20T13:45:04.942Z,1.75
2023-03-20T13:47:32.909Z,1.65
2023-03-20T13:50:24.047Z,2.17
2023-03-20T13:53:07.855Z,1.65
2023-03-20T13:56:02.373Z,2.00
2023-03-20T13:59:01.188Z,1.30
2023-03-20T14:01:33.705Z,1.67
2023-03-20T14:04:02.127Z,1.92
2023-03-20T14:06:31.489Z,1.70
2023-03-20T14:08:59.767Z,1.73
2023-03-20T14:11:30.714Z,1.73
2023-03-20T14:14:16.646Z,1.88
2023-03-20T14:16:43.349Z,1.60
2023-03-20T14:19:21.465Z,1.30
2023-03-20T14:21:50.632Z,1.95
2023-03-20T14:24:18.802Z,1.55
2023-03-20T14:26:50.503Z,1.80
2023-03-20T14:29:17.000Z,1.98
2023-03-20T14:31:47.720Z,1.45
2023-03-20T14:34:17.267Z,1.80
2023-03-20T14:36:58.519Z,1.40
2023-03-20T14:39:33.872Z,1.52
2023-03-20T14:42:29.589Z,1.40
2023-03-20T14:45:36.697Z,2.45
2023-03-20T14:48:29.602Z,1.60
2023-03-20T14:51:20.182Z,1.65
2023-03-20T14:53:57.911Z,1.92
2023-03-20T14:56:34.487Z,1.75
2023-03-20T14:59:10.248Z,2.20
2023-03-20T15:04:18.523Z,1.75
2023-03-20T15:06:53.844Z,2.08
2023-03-20T15:09:22.294Z,2.22
2023-03-20T15:11:49.105Z,1.65
2023-03-20T15:14:27.852Z,1.90
2023-03-20T15:17:03.505Z,1.80
2023-03-20T15:19:30.613Z,1.60
2023-03-20T15:21:57.146Z,1.60
2023-03-20T15:24:27.043Z,1.50
2023-03-20T15:29:25.941Z,1.75
2023-03-20T15:32:15.369Z,1.45
2023-03-20T15:34:42.832Z,1.55
2023-03-20T15:37:16.929Z,1.60
2023-03-20T15:39:50.306Z,1.63
2023-03-20T15:42:20.259Z,1.80
2023-03-20T15:44:48.677Z,2.15
2023-03-20T15:47:25.580Z,2.15
2023-03-20T15:49:57.587Z,1.83
2023-03-20T15:52:36.628Z,2.20
2023-03-20T15:55:40.845Z,1.88
2023-03-20T15:58:07.651Z,1.70
2023-03-20T16:00:39.484Z,1.65
2023-03-20T16:03:11.062Z,1.73
2023-03-20T16:05:37.582Z,1.73
2023-03-20T16:08:15.436Z,1.77
2023-03-20T16:10:43.491Z,1.83
2023-03-20T16:13:13.767Z,1.80
2023-03-20T16:15:40.953Z,1.90
2023-03-20T16:18:10.817Z,2.22
2023-03-20T16:20:41.598Z,1.80
2023-03-20T16:23:09.508Z,1.83
2023-03-20T16:25:37.403Z,1.88
2023-03-20T16:28:05.556Z,2.08
2023-03-20T16:30:32.797Z,2.50
2023-03-20T16:33:18.190Z,1.92
2023-03-20T16:35:48.285Z,1.75
2023-03-20T16:38:23.675Z,2.00
2023-03-20T16:40:54.147Z,1.90
2023-03-20T16:43:26.051Z,1.80
2023-03-20T16:45:55.036Z,1.70
2023-03-20T16:48:34.009Z,2.00
2023-03-20T16:51:26.288Z,2.05
2023-03-20T16:54:00.355Z,1.98
2023-03-20T16:56:37.658Z,1.92
2023-03-20T16:59:16.152Z,2.20
2023-03-20T17:01:45.402Z,2.00
2023-03-20T17:04:19.684Z,1.70
2023-03-20T17:06:49.881Z,2.03
2023-03-20T17:09:36.935Z,1.73
2023-03-20T17:12:14.877Z,2.13
2023-03-20T17:14:41.468Z,2.00
2023-03-20T17:17:18.234Z,1.98
2023-03-20T17:19:46.105Z,2.60
2023-03-20T17:22:19.221Z,2.00
2023-03-20T17:24:45.919Z,2.10
2023-03-20T17:27:13.629Z,2.75
2023-03-20T17:29:41.139Z,2.10
2023-03-20T17:32:12.773Z,2.05
2023-03-20T17:34:39.745Z,2.60
2023-03-20T17:37:11.366Z,2.42
2023-03-20T17:39:37.834Z,2.17
2023-03-20T17:42:17.404Z,2.47
2023-03-20T17:44:44.161Z,2.53
2023-03-20T17:47:19.551Z,2.80
2023-03-20T17:49:46.499Z,2.50
2023-03-20T17:52:15.324Z,2.50
2023-03-20T17:54:42.972Z,2.15
2023-03-20T17:57:37.942Z,3.33
2023-03-20T18:00:09.468Z,3.38
2023-03-20T18:02:36.082Z,3.10
2023-03-20T18:05:02.692Z,3.15
2023-03-20T18:07:29.300Z,2.70
2023-03-20T18:09:55.800Z,2.53
2023-03-20T18:12:22.273Z,2.30
2023-03-20T18:14:48.819Z,3.03
2023-03-20T18:17:15.959Z,2.97
2023-03-20T18:19:43.398Z,2.47
2023-03-20T18:22:10.642Z,2.35
2023-03-20T18:24:37.550Z,2.85
2023-03-20T18:27:05.034Z,2.58
2023-03-20T18:29:31.684Z,2.80
2023-03-20T18:31:58.199Z,2.95
2023-03-20T18:34:24.779Z,2.60
2023-03-20T18:36:51.374Z,3.08
2023-03-20T18:39:24.722Z,2.65
2023-03-20T18:41:51.494Z,3.35
2023-03-20T18:44:18.892Z,2.92
2023-03-20T18:46:48.342Z,2.70
2023-03-20T18:49:16.962Z,2.60
2023-03-20T18:51:44.493Z,2.80
2023-03-20T18:54:11.041Z,2.85
2023-03-20T18:56:37.634Z,2.95
2023-03-20T18:59:07.113Z,2.75
2023-03-20T19:01:34.440Z,2.60
2023-03-20T19:04:01.192Z,2.53
2023-03-20T19:06:27.892Z,2.67
2023-03-20T19:08:54.464Z,2.72
2023-03-20T19:11:21.791Z,2.63
2023-03-20T19:13:52.863Z,2.58
2023-03-20T19:16:23.715Z,2.97
2023-03-20T19:18:56.829Z,2.72
2023-03-20T19:21:23.414Z,2.70
2023-03-20T19:23:50.456Z,3.15
2023-03-20T19:26:19.167Z,3.22
2023-03-20T19:28:46.201Z,3.13
2023-03-20T19:31:13.323Z,4.15
2023-03-20T19:33:40.504Z,5.30
2023-03-20T19:36:19.543Z,4.07
2023-03-20T19:38:46.222Z,3.85
2023-03-20T19:41:12.893Z,5.03
2023-03-20T19:43:51.995Z,3.92
2023-03-20T19:46:36.272Z,3.00
2023-03-20T19:49:05.777Z,2.90
2023-03-20T19:51:32.414Z,2.78
2023-03-20T19:53:58.954Z,3.33
2023-03-20T19:56:25.504Z,3.05
2023-03-20T19:58:52.148Z,3.15
2023-03-20T20:01:24.778Z,3.45
2023-03-20T20:03:52.589Z,3.20
2023-03-20T20:06:22.210Z,3.15
2023-03-20T20:11:18.723Z,2.97
2023-03-20T20:14:15.600Z,3.28
2023-03-20T20:16:32.874Z,2.72
2023-03-20T20:18:59.539Z,3.20
2023-03-20T20:22:13.270Z,2.83
